CheckWX is a tool to help pilots better visualize weather data.  It is not intended as a substitute for an official pre-flight weather briefing.

01:51:36 UTC

KANQ METAR
Tri-State Steuben County Airport
Angola, Indiana, USA
Current

17 mins ago

KANQ 200135Z AUTO 21005KT 10SM BKN070 29/24 A2989 RMK AO2
Observed
Jul-20 @ 01:35 UTC
Wind
  • 210° at 5 KTS
Visibility
10 SM
Flight Rules
VFR
Cloud Levels
  • Broken at 7,000' AGL
Temperature
29°C / 84°F
Dewpoint
24°C / 75°F
Heat Index
33°C / 92°F
Humidity
74%
Altimeter
29.89" Hg
Pressure
1012.22 hPa
Previous

37 mins ago

KANQ 200115Z AUTO 20005KT 10SM FEW075 29/24 A2988 RMK AO2
Observed
Jul-20 @ 01:15 UTC
Wind
  • 200° at 5 KTS
Visibility
10 SM
Flight Rules
VFR
Cloud Levels
  • Few at 7,500' AGL
Temperature
29°C / 84°F
Dewpoint
24°C / 75°F
Heat Index
33°C / 92°F
Humidity
74%
Altimeter
29.88" Hg
Pressure
1011.82 hPa
Previous

57 mins ago

KANQ 200055Z AUTO 20006KT 10SM FEW075 30/24 A2989 RMK AO2 LTG DSNT N
Observed
Jul-20 @ 00:55 UTC
Wind
  • 200° at 6 KTS
Visibility
10 SM
Flight Rules
VFR
Cloud Levels
  • Few at 7,500' AGL
Temperature
30°C / 86°F
Dewpoint
24°C / 75°F
Heat Index
35°C / 95°F
Humidity
70%
Altimeter
29.89" Hg
Pressure
1012.22 hPa